Copenhagen Kastrup Airport

EKCH · Capital Region, 丹麦

罗盘
风向 的 风向 180° 哥本哈根凯斯楚普机场 4L/22R
风: 14 kt, 4 beaufort

11 kt

9 kt
改变
0 ft 1.000 2.000 3.000 4.000 5.000
Cloud Cloud Cloud Cloud Cloud Cloud
BKN 4.300
METAR EKCH 231550Z 18014KT 9999 BKN043 05/02 Q0994 NOSIG

METAR 哥本哈根凯斯楚普机场 - EKCH/CPH

哥本哈根凯斯楚普机场是,丹麦中的大型机场。 该机场位于纬度55,61284和经度12,64089。 该机场有3条跑道: 4L/22R, 4R/22L 和 12/30. 本场的ICAO机场代码为EKCH。 该机场的IATA代码为CPH。 机场在Kobenhavn FIR中。

该航空气象观测是针对哥本哈根凯斯楚普机场在2024年2月23日 16:50, 当地时间进行的。

机场观察

风向为180°,速度为14 kt。

可见度为10 km 或者更多。

有碎云在4.300 ft的高度。 破损或更高的上限为4.300 ft。

温度为5 °C,阵风为-1 °C。 露点为2 °C,相对湿度为81%。 海平面上的气压为994 hPa (QNH)。

白天

今天,太阳从07:15升起,在17:29降落。 这适用于哥本哈根凯斯楚普机场,世界夏令时可能有所不同。 当地时间与世界标准时间之间的时差为+1 小时。 当前,没有夏令时有效。

公司介绍

本场上唯一已知的公司是ASE Handling (FBO)。

体会

到Vliegles.nl去找飞行课程,跳伞和其他飞行体验。 浏览页面,了解哥本哈根凯斯楚普机场附近所有可用的活动。 你也可以使用搜索功能来寻找你所在地附近的特定飞行课程、跳伞或其他飞行体验。

跑道

Id 标题 侧风 逆风 侧风 %
4L/22R 041°-221° 9 kt 11 kt 66 %
4R/22L 041°-221° 9 kt 11 kt 66 %
12/30 123°-303° 12 kt 8 kt 84 %

逆风成分最大的方向会被突出显示,并用于横风计算。 这并不一定意味着这个方向在使用。

乌云

4.300 ft BKN 碎云

温度 & 天气

温度 5 °C
露点 2 °C
相对湿度 81%
风寒 -1 °C
Kp-index 0 (0-9)

白天

日出
07:15
中午
12:22
日落
17:29 (22m)

小工具

你想在你的网站上有一个关于哥本哈根凯斯楚普机场的当前航空天气(METAR)的小部件吗?

显示HTML代码
?>